createdAt,value
2018-03-06T00:02:14.812Z,21.00
2018-03-06T00:04:42.579Z,22.13
2018-03-06T00:07:10.121Z,23.73
2018-03-06T00:09:37.658Z,20.83
2018-03-06T00:12:05.266Z,21.33
2018-03-06T00:14:32.775Z,24.57
2018-03-06T00:17:00.613Z,22.10
2018-03-06T00:19:28.237Z,20.30
2018-03-06T00:21:55.884Z,19.23
2018-03-06T00:24:23.421Z,19.87
2018-03-06T00:26:50.969Z,22.27
2018-03-06T00:29:19.265Z,20.23
2018-03-06T00:31:46.802Z,21.87
2018-03-06T00:34:14.320Z,19.50
2018-03-06T00:36:41.835Z,22.10
2018-03-06T00:39:09.371Z,21.33
2018-03-06T00:41:36.904Z,20.90
2018-03-06T00:44:04.532Z,18.60
2018-03-06T00:46:32.061Z,21.40
2018-03-06T00:49:00.361Z,21.30
2018-03-06T00:51:28.168Z,22.50
2018-03-06T00:53:55.786Z,20.80
2018-03-06T00:56:23.483Z,19.33
2018-03-06T00:58:50.983Z,19.40
2018-03-06T01:01:19.285Z,18.33
2018-03-06T01:03:47.042Z,19.40
2018-03-06T01:06:14.595Z,21.87
2018-03-06T01:08:42.112Z,19.83
2018-03-06T01:11:09.697Z,18.30
2018-03-06T01:13:38.122Z,20.93
2018-03-06T01:16:05.635Z,18.57
2018-03-06T01:18:33.927Z,18.83
2018-03-06T01:21:01.508Z,19.93
2018-03-06T01:23:29.057Z,20.77
2018-03-06T01:25:56.652Z,19.67
2018-03-06T01:28:24.203Z,19.97
2018-03-06T01:30:51.736Z,20.00
2018-03-06T01:33:19.398Z,21.70
2018-03-06T01:35:46.977Z,18.40
2018-03-06T01:38:14.499Z,21.80
2018-03-06T01:40:42.289Z,20.50
2018-03-06T01:43:09.842Z,20.77
2018-03-06T01:45:37.364Z,17.80
2018-03-06T01:48:04.962Z,19.00
2018-03-06T01:50:32.427Z,23.13
2018-03-06T01:53:00.176Z,20.73
2018-03-06T01:55:27.837Z,20.30
2018-03-06T01:57:55.381Z,17.77
2018-03-06T02:00:22.967Z,19.80
2018-03-06T02:02:50.496Z,21.67
2018-03-06T02:05:18.084Z,21.63
2018-03-06T02:07:45.652Z,19.53
2018-03-06T02:10:13.179Z,18.97
2018-03-06T02:12:40.738Z,20.30
2018-03-06T02:15:08.262Z,23.30
2018-03-06T02:17:35.885Z,17.60
2018-03-06T02:20:03.426Z,20.63
2018-03-06T02:22:30.953Z,18.20
2018-03-06T02:24:58.527Z,22.90
2018-03-06T02:27:26.056Z,19.97
2018-03-06T02:29:53.586Z,18.73
2018-03-06T02:32:21.133Z,19.80
2018-03-06T02:34:48.795Z,19.43
2018-03-06T02:37:16.347Z,21.13
2018-03-06T02:39:43.923Z,20.87
2018-03-06T02:42:11.563Z,19.27
2018-03-06T02:44:39.234Z,22.50
2018-03-06T02:47:06.769Z,20.63
2018-03-06T02:49:34.764Z,20.50
2018-03-06T02:52:02.283Z,21.23
2018-03-06T02:54:30.577Z,20.33
2018-03-06T02:56:58.157Z,19.43
2018-03-06T02:59:25.680Z,19.33
2018-03-06T03:01:53.239Z,19.73
2018-03-06T03:04:20.838Z,19.57
2018-03-06T03:06:48.349Z,20.10
2018-03-06T03:09:15.877Z,20.23
2018-03-06T03:11:44.169Z,20.73
2018-03-06T03:14:12.815Z,18.93
2018-03-06T03:16:40.417Z,19.67
2018-03-06T03:19:08.149Z,18.53
2018-03-06T03:21:35.676Z,21.50
2018-03-06T03:24:03.365Z,21.93
2018-03-06T03:26:31.312Z,18.07
2018-03-06T03:28:58.831Z,21.20
2018-03-06T03:31:27.136Z,18.83
2018-03-06T03:33:54.910Z,21.57
2018-03-06T03:36:22.556Z,19.30
2018-03-06T03:38:50.437Z,20.67
2018-03-06T03:41:17.959Z,21.50
2018-03-06T03:43:46.262Z,21.27
2018-03-06T03:46:13.790Z,21.97
2018-03-06T03:48:42.210Z,20.67
2018-03-06T03:51:09.765Z,19.47
2018-03-06T03:53:37.279Z,19.53
2018-03-06T03:56:04.792Z,22.87
2018-03-06T03:58:32.338Z,22.30
2018-03-06T04:00:59.877Z,20.07
2018-03-06T04:03:27.421Z,22.23
2018-03-06T04:05:55.055Z,21.57
2018-03-06T04:08:22.600Z,21.43
2018-03-06T04:10:50.249Z,22.57
2018-03-06T04:13:17.889Z,22.57
2018-03-06T04:15:45.417Z,22.83
2018-03-06T04:18:12.966Z,21.60
2018-03-06T04:20:40.587Z,23.57
2018-03-06T04:23:08.140Z,22.87
2018-03-06T04:25:35.681Z,25.80
2018-03-06T04:28:03.353Z,21.17
2018-03-06T04:30:31.021Z,24.10
2018-03-06T04:32:58.672Z,25.03
2018-03-06T04:35:26.339Z,25.10
2018-03-06T04:37:54.087Z,25.30
2018-03-06T04:40:21.615Z,23.90
2018-03-06T04:42:49.925Z,22.13
2018-03-06T04:45:17.599Z,24.63
2018-03-06T04:47:45.127Z,23.00
2018-03-06T04:50:12.740Z,24.87
2018-03-06T04:52:40.311Z,21.77
2018-03-06T04:55:09.500Z,24.23
2018-03-06T04:57:37.108Z,21.40
2018-03-06T05:00:04.764Z,23.93
2018-03-06T05:02:32.486Z,25.50
2018-03-06T05:05:00.226Z,26.97
2018-03-06T05:07:27.748Z,25.33
2018-03-06T05:09:56.054Z,27.93
2018-03-06T05:12:23.573Z,24.90
2018-03-06T05:14:51.866Z,25.23
2018-03-06T05:17:19.425Z,24.33
2018-03-06T05:19:46.968Z,27.27
2018-03-06T05:22:15.298Z,24.23
2018-03-06T05:24:42.852Z,27.47
2018-03-06T05:27:10.614Z,25.17
2018-03-06T05:29:38.170Z,27.23
2018-03-06T05:32:05.742Z,25.87
2018-03-06T05:34:33.304Z,28.63
2018-03-06T05:37:01.075Z,24.27
2018-03-06T05:39:28.734Z,24.90
2018-03-06T05:41:56.284Z,24.70
2018-03-06T05:44:23.822Z,24.83
2018-03-06T05:46:51.369Z,24.50
2018-03-06T05:49:19.005Z,24.77
2018-03-06T05:51:47.305Z,24.00
2018-03-06T05:54:14.873Z,25.73
2018-03-06T05:56:42.395Z,27.27
2018-03-06T05:59:09.920Z,26.13
2018-03-06T06:01:37.580Z,26.63
2018-03-06T06:04:05.343Z,29.83
2018-03-06T06:06:32.945Z,33.47
2018-03-06T06:09:00.678Z,32.27
2018-03-06T06:11:28.207Z,26.67
2018-03-06T06:13:55.960Z,30.90
2018-03-06T06:16:23.632Z,33.53
2018-03-06T06:18:51.306Z,32.77
2018-03-06T06:21:18.985Z,31.57
2018-03-06T06:23:46.666Z,30.53
2018-03-06T06:26:14.179Z,31.13
2018-03-06T06:28:42.577Z,33.27
2018-03-06T06:31:10.118Z,30.13
2018-03-06T06:33:37.670Z,31.47
2018-03-06T06:36:05.175Z,33.63
2018-03-06T06:38:32.684Z,32.23
2018-03-06T06:41:00.451Z,31.73
2018-03-06T06:43:27.998Z,33.37
2018-03-06T06:45:55.518Z,30.27
2018-03-06T06:48:23.061Z,34.63
2018-03-06T06:50:50.586Z,30.97
2018-03-06T06:53:18.096Z,35.07
2018-03-06T06:55:45.648Z,37.43
2018-03-06T06:58:13.175Z,38.07
2018-03-06T07:00:40.713Z,35.30
2018-03-06T07:03:08.228Z,38.77
2018-03-06T07:05:36.044Z,38.30
2018-03-06T07:08:03.629Z,38.63
2018-03-06T07:10:31.155Z,45.40
2018-03-06T07:12:58.679Z,40.10
2018-03-06T07:15:27.561Z,42.87
2018-03-06T07:17:55.074Z,41.27
2018-03-06T07:20:22.601Z,47.20
2018-03-06T07:22:50.286Z,45.33
2018-03-06T07:25:17.850Z,45.77
2018-03-06T07:27:45.412Z,46.43
2018-03-06T07:30:13.068Z,45.97
2018-03-06T07:32:40.630Z,50.83
2018-03-06T07:35:08.151Z,43.97
2018-03-06T07:37:35.747Z,47.67
2018-03-06T07:40:03.277Z,47.27
2018-03-06T07:42:31.684Z,52.20
2018-03-06T07:44:59.348Z,56.20
2018-03-06T07:47:26.893Z,52.37
2018-03-06T07:49:54.464Z,47.67
2018-03-06T07:52:22.220Z,51.93
2018-03-06T07:54:49.744Z,48.40
2018-03-06T07:57:18.220Z,52.00
2018-03-06T07:59:46.604Z,51.07
2018-03-06T08:02:14.116Z,59.50
2018-03-06T08:04:41.759Z,50.57
2018-03-06T08:07:09.417Z,49.77
2018-03-06T08:09:36.942Z,53.63
2018-03-06T08:12:05.277Z,50.63
2018-03-06T08:14:32.781Z,47.07
2018-03-06T08:17:00.389Z,48.57
2018-03-06T08:19:28.017Z,52.23
2018-03-06T08:21:56.292Z,52.17
2018-03-06T08:24:24.678Z,54.80
2018-03-06T08:26:52.230Z,52.00
2018-03-06T08:29:19.906Z,51.20
2018-03-06T08:31:47.429Z,51.90
2018-03-06T08:34:15.729Z,51.20
2018-03-06T08:36:43.273Z,49.23
2018-03-06T08:39:10.795Z,51.13
2018-03-06T08:41:38.303Z,52.43
2018-03-06T08:44:05.875Z,50.53
2018-03-06T08:46:33.404Z,51.80
2018-03-06T08:49:01.709Z,52.23
2018-03-06T08:51:29.237Z,48.57
2018-03-06T08:53:56.762Z,47.53
2018-03-06T08:56:24.796Z,50.60
2018-03-06T08:58:52.326Z,56.87
2018-03-06T09:01:19.851Z,48.23
2018-03-06T09:03:47.380Z,47.47
2018-03-06T09:06:14.922Z,50.67
2018-03-06T09:08:42.455Z,50.17
2018-03-06T09:11:10.140Z,56.90
2018-03-06T09:13:37.666Z,48.17
2018-03-06T09:16:05.187Z,48.13
2018-03-06T09:18:32.691Z,54.03
2018-03-06T09:21:00.995Z,48.63
2018-03-06T09:23:28.528Z,52.27
2018-03-06T09:25:56.066Z,50.67
2018-03-06T09:28:23.593Z,49.43
2018-03-06T09:30:51.160Z,52.97
2018-03-06T09:33:19.493Z,53.00
2018-03-06T09:35:47.086Z,52.30
2018-03-06T09:38:14.604Z,53.43
2018-03-06T09:40:43.001Z,47.03
2018-03-06T09:43:10.512Z,53.90
2018-03-06T09:45:38.345Z,50.70
2018-03-06T09:48:05.856Z,49.10
2018-03-06T09:50:34.125Z,49.13
2018-03-06T09:53:01.729Z,50.03
2018-03-06T09:55:29.248Z,50.13
2018-03-06T09:57:58.071Z,48.07
2018-03-06T10:00:25.610Z,49.63
2018-03-06T10:02:53.154Z,48.43
2018-03-06T10:05:20.707Z,49.30
2018-03-06T10:07:48.212Z,47.57
2018-03-06T10:10:15.742Z,45.17
2018-03-06T10:12:44.030Z,55.13
2018-03-06T10:15:11.543Z,49.80
2018-03-06T10:17:39.111Z,55.33
2018-03-06T10:20:06.669Z,52.93
2018-03-06T10:22:34.290Z,48.20
2018-03-06T10:25:01.813Z,53.40
2018-03-06T10:27:30.089Z,50.43
2018-03-06T10:29:58.383Z,50.87
2018-03-06T10:32:25.910Z,44.37
2018-03-06T10:34:54.194Z,53.43
2018-03-06T10:37:21.749Z,51.67
2018-03-06T10:39:50.045Z,50.13
2018-03-06T10:42:17.560Z,48.20
2018-03-06T10:44:45.142Z,47.90
2018-03-06T10:47:12.851Z,45.23
2018-03-06T10:49:40.464Z,46.93
2018-03-06T10:52:07.969Z,49.77
2018-03-06T10:54:35.472Z,48.10
2018-03-06T10:57:03.776Z,47.63
2018-03-06T10:59:31.299Z,50.27
2018-03-06T11:01:58.811Z,45.40
2018-03-06T11:04:26.519Z,46.30
2018-03-06T11:06:54.000Z,45.33
2018-03-06T11:09:22.598Z,52.70
2018-03-06T11:11:50.167Z,48.70
2018-03-06T11:14:17.961Z,44.33
2018-03-06T11:16:45.470Z,45.17
2018-03-06T11:19:12.983Z,48.83
2018-03-06T11:21:40.590Z,45.17
2018-03-06T11:24:08.130Z,46.20
2018-03-06T11:26:35.817Z,46.47
2018-03-06T11:29:03.347Z,49.50
2018-03-06T11:31:30.889Z,49.77
2018-03-06T11:33:58.598Z,47.07
2018-03-06T11:36:26.272Z,46.97
2018-03-06T11:38:53.786Z,49.37
2018-03-06T11:41:21.486Z,49.23
2018-03-06T11:43:49.112Z,50.77
2018-03-06T11:46:16.636Z,51.57
2018-03-06T11:48:44.148Z,48.40
2018-03-06T11:51:12.439Z,53.73
2018-03-06T11:53:40.045Z,47.90
2018-03-06T11:56:07.558Z,50.13
2018-03-06T11:58:35.087Z,56.00
2018-03-06T12:01:03.417Z,53.77
2018-03-06T12:03:31.056Z,51.43
2018-03-06T12:05:58.700Z,48.97
2018-03-06T12:08:26.388Z,53.03
2018-03-06T12:10:54.047Z,49.83
2018-03-06T12:13:21.587Z,47.93
2018-03-06T12:15:49.118Z,44.70
2018-03-06T12:18:16.698Z,49.43
2018-03-06T12:20:44.264Z,45.60
2018-03-06T12:23:11.785Z,49.27
2018-03-06T12:25:39.579Z,48.63
2018-03-06T12:28:07.093Z,48.70
2018-03-06T12:30:34.610Z,47.47
2018-03-06T12:33:02.272Z,47.63
2018-03-06T12:35:29.841Z,45.63
2018-03-06T12:37:57.388Z,50.30
2018-03-06T14:02:22.427Z,43.63
2018-03-06T14:04:49.959Z,44.57
2018-03-06T14:07:18.239Z,44.63
2018-03-06T14:09:46.190Z,49.70
2018-03-06T14:12:13.709Z,47.20
2018-03-06T14:14:41.228Z,47.80
2018-03-06T14:17:09.040Z,46.80
2018-03-06T14:19:36.593Z,44.83
2018-03-06T14:22:04.217Z,45.67
2018-03-06T14:24:32.897Z,43.70
2018-03-06T14:27:00.419Z,47.07
2018-03-06T14:29:28.047Z,42.50
2018-03-06T14:31:55.911Z,45.07
2018-03-06T14:34:23.441Z,46.77
2018-03-06T14:36:50.997Z,45.93
2018-03-06T14:39:18.888Z,44.97
2018-03-06T14:41:46.408Z,47.50
2018-03-06T14:44:14.712Z,44.67
2018-03-06T14:46:42.673Z,42.30
2018-03-06T14:49:10.995Z,45.20
2018-03-06T14:51:38.545Z,47.93
2018-03-06T14:54:06.384Z,46.67
2018-03-06T14:56:34.051Z,46.43
2018-03-06T14:59:01.577Z,48.80
2018-03-06T15:01:30.185Z,44.77
2018-03-06T15:03:57.837Z,46.27
2018-03-06T15:06:25.366Z,47.67
2018-03-06T15:08:54.097Z,45.47
2018-03-06T15:11:21.642Z,47.53
2018-03-06T15:13:49.168Z,44.63
2018-03-06T15:16:16.993Z,48.27
2018-03-06T15:18:44.541Z,48.63
2018-03-06T15:21:12.086Z,45.43
2018-03-06T15:23:39.914Z,47.60
2018-03-06T15:26:07.544Z,47.47
2018-03-06T15:28:35.077Z,47.90
2018-03-06T15:31:03.037Z,50.10
2018-03-06T15:33:30.550Z,46.73
2018-03-06T15:35:58.168Z,50.23
2018-03-06T15:38:25.997Z,45.73
2018-03-06T15:40:54.284Z,50.60
2018-03-06T15:43:22.570Z,47.70
2018-03-06T15:45:50.381Z,52.03
2018-03-06T15:48:17.951Z,49.57
2018-03-06T15:50:45.506Z,46.67
2018-03-06T15:53:13.332Z,52.47
2018-03-06T15:55:41.006Z,47.43
2018-03-06T15:58:08.526Z,49.17
2018-03-06T16:00:37.142Z,50.93
2018-03-06T16:03:04.747Z,47.00
2018-03-06T16:05:32.270Z,48.60
2018-03-06T16:08:00.119Z,52.67
2018-03-06T16:10:27.680Z,46.63
2018-03-06T16:12:55.239Z,52.53
2018-03-06T16:15:23.070Z,48.17
2018-03-06T16:17:50.605Z,47.77
2018-03-06T16:20:18.136Z,49.53
2018-03-06T16:22:46.090Z,54.07
2018-03-06T16:25:13.624Z,49.87
2018-03-06T16:27:41.267Z,52.47
2018-03-06T16:30:09.089Z,56.50
2018-03-06T16:32:36.597Z,49.20
2018-03-06T16:35:04.754Z,52.90
2018-03-06T16:37:32.574Z,52.57
2018-03-06T16:40:00.090Z,52.10
2018-03-06T16:42:28.417Z,50.63
2018-03-06T16:44:56.380Z,52.67
2018-03-06T16:47:23.914Z,58.43
2018-03-06T16:49:51.441Z,51.93
2018-03-06T16:52:19.402Z,52.30
2018-03-06T16:54:46.901Z,52.90
2018-03-06T16:57:14.685Z,60.53
2018-03-06T16:59:42.561Z,53.63
2018-03-06T17:02:10.071Z,55.70
2018-03-06T17:04:38.492Z,54.13
2018-03-06T17:07:06.345Z,55.67
2018-03-06T17:09:33.918Z,55.10
2018-03-06T17:12:01.505Z,55.20
2018-03-06T17:14:29.450Z,50.97
2018-03-06T17:16:57.089Z,56.47
2018-03-06T17:19:24.608Z,54.00
2018-03-06T17:21:53.246Z,55.07
2018-03-06T17:24:20.763Z,58.17
2018-03-06T17:26:49.074Z,51.57
2018-03-06T17:29:16.925Z,59.03
2018-03-06T17:31:44.541Z,60.67
2018-03-06T17:34:12.077Z,63.83
2018-03-06T17:36:40.004Z,62.90
2018-03-06T17:39:07.522Z,61.03
2018-03-06T17:41:35.048Z,54.60
2018-03-06T17:44:03.010Z,56.87
2018-03-06T17:46:30.719Z,56.30
2018-03-06T17:48:58.369Z,53.70
2018-03-06T17:51:26.436Z,58.67
2018-03-06T17:53:53.983Z,56.67
2018-03-06T17:56:21.522Z,58.17
2018-03-06T17:58:49.387Z,59.07
2018-03-06T18:01:16.911Z,55.37
2018-03-06T18:03:45.223Z,58.60
2018-03-06T18:06:13.197Z,60.73
2018-03-06T18:08:40.827Z,59.73
2018-03-06T18:11:08.349Z,62.17
2018-03-06T18:13:36.287Z,61.00
2018-03-06T18:16:03.830Z,61.60
2018-03-06T18:18:31.434Z,68.30
2018-03-06T18:20:59.412Z,61.20
2018-03-06T18:23:26.941Z,85.10
2018-03-06T18:25:54.527Z,96.80
2018-03-06T18:28:22.568Z,87.80
2018-03-06T18:30:50.138Z,79.07
2018-03-06T18:33:17.684Z,70.97
2018-03-06T18:35:45.663Z,64.87
2018-03-06T18:38:13.240Z,73.23
2018-03-06T18:40:41.700Z,63.70
2018-03-06T18:43:09.584Z,61.53
2018-03-06T18:45:37.141Z,63.67
2018-03-06T18:48:05.316Z,61.63
2018-03-06T18:50:45.130Z,67.40
2018-03-06T18:53:12.767Z,66.97
2018-03-06T18:55:40.386Z,64.10
2018-03-06T18:58:08.256Z,64.13
2018-03-06T19:03:52.304Z,61.43
2018-03-06T19:06:23.245Z,64.17
2018-03-06T19:08:50.804Z,67.03
2018-03-06T19:11:18.688Z,64.27
2018-03-06T19:13:47.242Z,60.33
2018-03-06T19:16:14.799Z,66.43
2018-03-06T19:18:42.856Z,61.47
2018-03-06T19:21:10.476Z,63.03
2018-03-06T19:23:38.066Z,64.50
2018-03-06T19:26:06.020Z,64.90
2018-03-06T19:28:33.613Z,66.47
2018-03-06T19:31:01.298Z,67.23
2018-03-06T19:33:29.235Z,64.37
2018-03-06T19:35:56.823Z,67.23
2018-03-06T19:38:24.416Z,68.23
2018-03-06T19:40:53.123Z,67.20
2018-03-06T19:43:20.820Z,63.87
2018-03-06T19:45:48.490Z,69.47
2018-03-06T19:48:17.241Z,65.80
2018-03-06T19:50:44.828Z,70.03
2018-03-06T19:53:13.619Z,68.23
2018-03-06T19:55:41.554Z,72.80
2018-03-06T19:58:09.179Z,64.53
2018-03-06T20:00:38.388Z,76.43
2018-03-06T20:03:07.591Z,69.43
2018-03-06T20:05:35.938Z,67.53
2018-03-06T20:08:04.393Z,73.33
2018-03-06T20:10:33.090Z,69.80
2018-03-06T20:13:01.264Z,73.37
2018-03-06T20:15:29.811Z,67.40
2018-03-06T20:17:57.725Z,71.37
2018-03-06T20:20:25.370Z,70.77
2018-03-06T20:22:53.005Z,74.27
2018-03-06T20:25:27.197Z,73.10
2018-03-06T20:27:55.811Z,71.80
2018-03-06T20:30:29.484Z,73.10
2018-03-06T20:33:02.786Z,76.80
2018-03-06T20:35:31.808Z,72.33
2018-03-06T20:37:59.390Z,73.63
2018-03-06T20:40:32.804Z,75.30
2018-03-06T20:43:01.494Z,76.60
2018-03-06T20:45:35.346Z,75.33
2018-03-06T20:48:02.920Z,87.70
2018-03-06T20:50:30.499Z,80.87
2018-03-06T20:53:04.120Z,74.77
2018-03-06T20:55:32.459Z,75.87
2018-03-06T20:58:00.647Z,83.73
2018-03-06T21:00:29.126Z,77.90
2018-03-06T21:02:56.691Z,80.43
2018-03-06T21:05:25.793Z,73.47
2018-03-06T21:07:53.772Z,79.83
2018-03-06T21:10:22.129Z,82.73
2018-03-06T21:12:50.622Z,74.23
2018-03-06T21:15:18.603Z,85.00
2018-03-06T21:17:46.936Z,88.63
2018-03-06T21:20:14.559Z,81.53
2018-03-06T21:22:42.686Z,81.90
2018-03-06T21:25:10.256Z,83.20
2018-03-06T21:27:37.830Z,80.27
2018-03-06T21:30:06.590Z,80.87
2018-03-06T21:32:34.137Z,81.13
2018-03-06T21:35:01.734Z,79.60
2018-03-06T21:37:29.717Z,75.40
2018-03-06T21:39:58.032Z,78.07
2018-03-06T21:42:25.581Z,87.23
2018-03-06T21:44:53.469Z,78.53
2018-03-06T21:47:21.229Z,82.60
2018-03-06T21:49:48.744Z,87.33
2018-03-06T21:52:17.396Z,86.07
2018-03-06T21:54:44.924Z,86.93
2018-03-06T21:57:12.484Z,136.17
2018-03-06T21:59:40.359Z,84.03
2018-03-06T22:02:07.890Z,82.17
2018-03-06T22:04:35.420Z,82.60
2018-03-06T22:07:03.319Z,81.17
2018-03-06T22:09:30.837Z,84.67
2018-03-06T22:11:59.123Z,81.20
2018-03-06T22:14:27.731Z,85.67
2018-03-06T22:16:55.268Z,81.27
2018-03-06T22:19:23.553Z,86.57
2018-03-06T22:21:51.348Z,83.13
2018-03-06T22:24:18.874Z,81.23
2018-03-06T22:26:47.170Z,88.10
2018-03-06T22:29:15.129Z,81.73
2018-03-06T22:31:42.664Z,88.73
2018-03-06T22:34:10.944Z,85.63
2018-03-06T22:36:39.558Z,84.17
2018-03-06T22:39:07.090Z,80.03
2018-03-06T22:41:35.366Z,85.27
2018-03-06T22:44:03.311Z,81.03
2018-03-06T22:46:30.825Z,80.60
2018-03-06T22:48:58.381Z,86.70
2018-03-06T22:51:26.230Z,77.30
2018-03-06T22:53:53.744Z,82.40
2018-03-06T22:56:21.257Z,83.07
2018-03-06T22:58:49.217Z,78.87
2018-03-06T23:01:16.891Z,85.60
2018-03-06T23:03:44.401Z,85.70
2018-03-06T23:06:12.396Z,81.30
2018-03-06T23:08:40.094Z,82.43
2018-03-06T23:11:07.610Z,83.33
2018-03-06T23:13:36.309Z,84.67
2018-03-06T23:16:03.831Z,86.03
2018-03-06T23:18:31.337Z,83.77
2018-03-06T23:20:59.181Z,88.97
2018-03-06T23:23:26.685Z,87.83
2018-03-06T23:25:54.313Z,82.40
2018-03-06T23:28:22.185Z,86.70
2018-03-06T23:30:49.842Z,94.30
2018-03-06T23:33:17.349Z,90.17
2018-03-06T23:35:45.152Z,83.97
2018-03-06T23:38:12.661Z,85.47
2018-03-06T23:40:40.287Z,89.53
2018-03-06T23:43:08.154Z,98.80
2018-03-06T23:45:35.817Z,90.10
2018-03-06T23:48:03.312Z,87.17
2018-03-06T23:50:31.147Z,91.10
2018-03-06T23:52:58.678Z,94.43
2018-03-06T23:55:26.256Z,90.50
2018-03-06T23:57:54.255Z,92.73
